createdAt,value
2019-04-01T06:16:33.778Z,4.08
2019-04-01T06:19:01.817Z,4.04
2019-04-01T06:21:29.670Z,3.96
2019-04-01T06:23:58.276Z,4.09
2019-04-01T06:26:26.160Z,4.01
2019-04-01T06:28:53.948Z,4.04
2019-04-01T06:31:21.761Z,4.33
2019-04-01T06:33:49.520Z,4.35
2019-04-01T06:36:17.269Z,4.44
2019-04-01T06:38:45.008Z,4.38
2019-04-01T06:41:12.698Z,4.46
2019-04-01T06:43:40.401Z,4.70
2019-04-01T06:46:08.149Z,4.81
2019-04-01T06:48:35.850Z,4.97
2019-04-01T06:51:03.703Z,5.12
2019-04-01T06:53:31.426Z,4.97
2019-04-01T06:55:59.257Z,5.03
2019-04-01T06:58:26.952Z,5.14
2019-04-01T07:00:54.685Z,5.01
2019-04-01T07:03:23.370Z,5.02
2019-04-01T07:05:52.222Z,5.15
2019-04-01T07:08:19.918Z,5.26
2019-04-01T07:10:47.670Z,5.08
2019-04-01T07:13:15.435Z,5.06
2019-04-01T07:15:43.654Z,5.12
2019-04-01T07:18:11.499Z,5.40
2019-04-01T07:20:39.483Z,5.51
2019-04-01T07:23:07.284Z,5.60
2019-04-01T07:25:35.134Z,5.61
2019-04-01T07:28:03.021Z,5.65
2019-04-01T07:30:30.884Z,5.68
2019-04-01T07:32:58.877Z,5.64
2019-04-01T07:35:29.305Z,5.78
2019-04-01T07:37:57.141Z,6.03
2019-04-01T07:40:24.977Z,6.12
2019-04-01T07:42:53.111Z,6.35
2019-04-01T07:45:21.033Z,6.34
2019-04-01T07:47:51.673Z,6.10
2019-04-01T07:50:18.731Z,6.14
2019-04-01T07:52:46.509Z,6.29
2019-04-01T07:55:14.615Z,6.29
2019-04-01T07:57:42.791Z,6.48
2019-04-01T08:00:10.704Z,6.61
2019-04-01T08:02:38.476Z,6.58
2019-04-01T08:05:06.746Z,6.54
2019-04-01T08:07:34.627Z,6.53
2019-04-01T08:10:03.107Z,6.75
2019-04-01T08:12:31.282Z,6.93
2019-04-01T08:14:59.082Z,7.01
2019-04-01T08:17:27.036Z,7.16
2019-04-01T08:19:54.867Z,7.39
2019-04-01T08:22:22.664Z,7.56
2019-04-01T08:24:50.444Z,7.57
2019-04-01T08:27:18.210Z,7.61
2019-04-01T08:29:46.356Z,7.63
2019-04-01T08:32:14.380Z,7.70
2019-04-01T08:34:42.142Z,7.78
2019-04-01T08:37:10.272Z,7.74
2019-04-01T08:39:38.011Z,7.62
2019-04-01T08:42:05.894Z,7.80
2019-04-01T08:44:33.694Z,8.19
2019-04-01T08:47:01.547Z,8.37
2019-04-01T08:49:29.514Z,8.45
2019-04-01T08:51:57.313Z,8.48
2019-04-01T08:54:25.260Z,8.73
2019-04-01T08:56:53.166Z,8.60
2019-04-01T08:59:23.547Z,8.64
2019-04-01T09:01:53.513Z,8.80
2019-04-01T09:04:21.823Z,9.41
2019-04-01T09:06:49.711Z,10.05
2019-04-01T09:09:17.611Z,10.78
2019-04-01T09:11:45.683Z,12.26
2019-04-01T09:14:14.807Z,14.00
2019-04-01T09:16:43.403Z,14.97
2019-04-01T09:19:11.191Z,16.70
2019-04-01T09:21:38.997Z,20.66
2019-04-01T09:24:06.967Z,23.75
2019-04-01T09:26:34.802Z,26.64
2019-04-01T09:29:02.866Z,28.63
2019-04-01T09:31:30.696Z,31.01
2019-04-01T09:33:58.569Z,32.10
2019-04-01T09:36:26.554Z,29.22
2019-04-01T09:38:54.421Z,31.04
2019-04-01T09:41:22.354Z,34.02
2019-04-01T09:43:50.150Z,34.92
2019-04-01T09:46:18.031Z,34.68
2019-04-01T09:48:45.978Z,34.97
2019-04-01T09:51:13.767Z,35.27
2019-04-01T09:53:41.836Z,35.55
2019-04-01T09:56:09.664Z,36.06
2019-04-01T09:58:37.529Z,35.59
2019-04-01T10:01:05.430Z,36.76
2019-04-01T10:03:33.191Z,37.94
2019-04-01T10:06:01.125Z,38.09
2019-04-01T10:08:41.435Z,38.04
2019-04-01T10:11:01.360Z,37.28
2019-04-01T10:13:29.418Z,37.60
2019-04-01T10:15:57.194Z,37.28
2019-04-01T10:18:25.010Z,38.43
2019-04-01T10:20:52.858Z,38.45
2019-04-01T10:23:20.708Z,35.69
2019-04-01T10:25:51.275Z,36.22
2019-04-01T10:28:18.222Z,33.59
2019-04-01T10:30:46.073Z,30.45
2019-04-01T10:33:13.866Z,32.38
2019-04-01T10:35:42.002Z,35.16
2019-04-01T10:38:09.891Z,35.57
2019-04-01T10:40:37.878Z,37.52
2019-04-01T10:43:05.703Z,38.65
2019-04-01T10:45:33.507Z,36.55
2019-04-01T10:48:01.393Z,32.05
2019-04-01T10:50:29.343Z,32.85
2019-04-01T10:52:57.142Z,33.34
2019-04-01T10:55:25.148Z,31.02
2019-04-01T10:57:54.118Z,27.39
2019-04-01T11:00:22.515Z,28.89
2019-04-01T11:02:50.496Z,27.96
2019-04-01T11:05:18.457Z,31.61
2019-04-01T11:07:46.260Z,34.02
2019-04-01T11:10:14.143Z,31.79
2019-04-01T11:12:41.978Z,33.04
2019-04-01T11:15:10.791Z,30.52
2019-04-01T11:17:38.610Z,27.80
2019-04-01T11:20:10.831Z,29.17
2019-04-01T11:22:38.778Z,31.31
2019-04-01T11:25:07.302Z,32.52
2019-04-01T11:27:35.427Z,34.66
2019-04-01T11:30:04.350Z,36.45
2019-04-01T11:32:32.139Z,37.61
2019-04-01T11:35:00.033Z,37.50
2019-04-01T11:37:27.921Z,34.99
2019-04-01T11:39:55.787Z,30.73
2019-04-01T11:42:23.749Z,33.27
2019-04-01T11:44:52.549Z,36.33
2019-04-01T11:47:22.267Z,37.02
2019-04-01T11:49:50.349Z,37.01
2019-04-01T11:52:18.358Z,37.85
2019-04-01T11:54:46.256Z,36.20
2019-04-01T11:57:14.076Z,38.82
2019-04-01T11:59:41.933Z,39.18
2019-04-01T12:02:09.786Z,38.96
2019-04-01T12:04:37.601Z,37.85
2019-04-01T12:07:05.708Z,37.78
2019-04-01T12:09:33.560Z,37.05
2019-04-01T12:12:01.476Z,33.25
2019-04-01T12:14:29.251Z,32.36
2019-04-01T12:16:57.474Z,34.44
2019-04-01T12:19:27.186Z,32.58
2019-04-01T12:21:55.035Z,31.33
2019-04-01T12:24:22.832Z,33.07
2019-04-01T12:26:50.746Z,33.01
2019-04-01T12:29:18.539Z,32.78
2019-04-01T12:31:46.359Z,31.07
2019-04-01T12:34:14.690Z,32.28
2019-04-01T12:36:42.544Z,35.45
2019-04-01T12:39:10.403Z,32.28
2019-04-01T12:41:38.240Z,33.72
2019-04-01T12:44:06.060Z,35.56
2019-04-01T12:46:33.856Z,36.96
2019-04-01T12:49:01.737Z,36.02
2019-04-01T12:53:20.867Z,32.80
2019-04-01T13:03:06.707Z,39.56
2019-04-01T13:05:37.742Z,39.03
2019-04-01T13:08:05.783Z,39.52
2019-04-01T13:19:01.656Z,35.48
2019-04-01T13:21:29.460Z,36.16
2019-04-01T13:23:57.399Z,35.53
2019-04-01T13:26:25.231Z,35.50
2019-04-01T13:28:53.091Z,35.50
2019-04-01T13:31:20.947Z,35.55
2019-04-01T13:33:48.809Z,34.72
2019-04-01T13:36:16.614Z,34.59
2019-04-01T13:38:44.546Z,33.53
2019-04-01T13:41:13.306Z,34.47
2019-04-01T13:43:41.318Z,35.00
2019-04-01T13:46:18.403Z,35.20
2019-04-01T13:48:57.434Z,34.05
2019-04-01T13:51:20.365Z,31.47
2019-04-01T13:53:48.232Z,30.17
2019-04-01T13:56:16.011Z,29.97
2019-04-01T13:58:43.869Z,31.64
2019-04-01T14:01:11.800Z,32.96
2019-04-01T14:03:39.677Z,31.48
2019-04-01T14:06:07.443Z,30.82
2019-04-01T14:08:35.261Z,31.73
2019-04-01T14:11:06.011Z,31.81
2019-04-01T14:13:32.925Z,32.40
2019-04-01T14:16:00.775Z,30.95
2019-04-01T14:18:28.803Z,31.51
2019-04-01T14:20:56.669Z,30.82
2019-04-01T14:23:24.575Z,30.96
2019-04-01T14:25:52.865Z,29.09
2019-04-01T14:28:20.778Z,28.41
2019-04-01T14:30:48.729Z,29.80
2019-04-01T14:33:16.540Z,30.05
2019-04-01T14:35:45.256Z,29.50
2019-04-01T14:38:15.671Z,27.15
2019-04-01T14:40:43.503Z,25.47
2019-04-01T14:43:16.212Z,25.27
2019-04-01T14:45:41.607Z,25.26
2019-04-01T14:48:09.622Z,22.93
2019-04-01T14:50:37.642Z,22.01
2019-04-01T14:53:06.131Z,19.67
2019-04-01T14:55:33.917Z,18.93
2019-04-01T14:58:01.882Z,18.66
2019-04-01T15:00:29.723Z,17.95
2019-04-01T15:02:57.744Z,17.33
2019-04-01T15:05:25.524Z,17.17
2019-04-01T15:07:53.363Z,16.90
2019-04-01T15:10:21.196Z,16.52
2019-04-01T15:13:04.095Z,16.51
2019-04-01T15:15:18.749Z,16.25
2019-04-01T15:17:51.658Z,16.11
2019-04-01T15:20:21.565Z,15.71
2019-04-01T15:22:49.415Z,15.13
2019-04-01T15:25:17.292Z,15.21
2019-04-01T15:27:45.369Z,14.71
2019-04-01T15:30:14.286Z,14.47
2019-04-01T15:32:42.603Z,14.76
2019-04-01T15:35:10.736Z,14.52
2019-04-01T15:37:39.966Z,14.12
2019-04-01T15:40:08.925Z,13.99
2019-04-01T15:42:36.744Z,14.16
2019-04-01T15:45:06.103Z,14.20
2019-04-01T15:47:38.302Z,14.40
2019-04-01T15:50:06.475Z,14.14
2019-04-01T15:52:34.613Z,14.08
2019-04-01T15:55:02.950Z,13.79
2019-04-01T15:57:31.276Z,13.79
2019-04-01T15:59:59.124Z,13.95
2019-04-01T16:02:26.944Z,14.00
2019-04-01T16:04:56.803Z,13.89
2019-04-01T16:07:24.766Z,13.81
2019-04-01T16:09:52.577Z,13.94
2019-04-01T16:12:20.542Z,13.86
2019-04-01T16:14:48.327Z,13.85
2019-04-01T16:17:30.402Z,13.93
2019-04-01T16:20:13.475Z,13.89
2019-04-01T16:22:43.676Z,13.81
2019-04-01T16:25:11.193Z,13.80
2019-04-01T16:27:39.102Z,13.62
2019-04-01T16:30:08.076Z,13.60
2019-04-01T16:32:36.173Z,13.59
2019-04-01T16:35:04.895Z,13.39
2019-04-01T16:37:32.735Z,13.16
2019-04-01T16:40:00.551Z,13.27
2019-04-01T16:42:28.362Z,13.17
2019-04-01T16:44:56.360Z,13.03
2019-04-01T16:47:24.304Z,12.93
2019-04-01T16:49:52.336Z,13.00
2019-04-01T16:52:20.220Z,13.01
2019-04-01T16:54:57.969Z,12.98
2019-04-01T16:57:25.763Z,12.73
2019-04-01T16:59:53.569Z,12.91
2019-04-01T17:02:21.726Z,12.80
2019-04-01T17:04:49.469Z,12.78
2019-04-01T17:07:19.530Z,12.73
2019-04-01T17:09:47.233Z,12.61
2019-04-01T17:12:15.687Z,12.48
2019-04-01T17:14:43.536Z,12.33
2019-04-01T17:17:11.472Z,12.41
2019-04-01T17:19:39.434Z,12.22
2019-04-01T17:22:07.366Z,12.18
2019-04-01T17:24:35.231Z,12.00
2019-04-01T17:27:13.109Z,11.98
2019-04-01T17:29:44.549Z,12.10
2019-04-01T17:32:12.640Z,11.81
2019-04-01T17:34:40.563Z,11.99
2019-04-01T17:37:09.265Z,11.78
2019-04-01T17:39:37.441Z,11.69
2019-04-01T17:42:05.810Z,11.71
2019-04-01T17:44:33.712Z,11.56
2019-04-01T17:47:01.490Z,11.44
2019-04-01T17:49:30.244Z,11.43
2019-04-01T17:51:58.963Z,11.40
2019-04-01T17:54:26.792Z,11.44
2019-04-01T17:56:54.609Z,11.36
2019-04-01T17:59:22.511Z,11.24
2019-04-01T18:01:50.326Z,11.29
2019-04-01T18:04:19.418Z,11.13
2019-04-01T18:06:47.303Z,11.14
2019-04-01T18:09:15.096Z,10.99
2019-04-01T18:11:43.058Z,10.83
2019-04-01T18:14:10.810Z,10.95
2019-04-01T18:16:38.583Z,10.76
2019-04-01T18:19:07.238Z,10.90
2019-04-01T18:21:38.130Z,10.72
2019-04-01T18:24:05.367Z,10.80
2019-04-01T18:26:33.117Z,10.71
2019-04-01T18:29:00.873Z,10.61
2019-04-01T18:31:28.665Z,10.56
2019-04-01T18:33:56.796Z,10.51
2019-04-01T18:36:24.651Z,10.55
2019-04-01T18:38:52.446Z,10.39
2019-04-01T18:41:20.171Z,10.27
2019-04-01T18:43:48.163Z,10.34
2019-04-01T18:46:16.113Z,10.16
2019-04-01T18:48:44.139Z,10.14
2019-04-01T18:51:11.988Z,10.10
2019-04-01T18:53:40.092Z,10.09
2019-04-01T18:56:07.884Z,9.99
2019-04-01T18:58:35.653Z,9.97
2019-04-01T19:01:06.640Z,9.86
2019-04-01T19:03:36.302Z,9.90
2019-04-01T19:06:07.508Z,9.85
2019-04-01T19:08:43.439Z,9.81
2019-04-01T19:11:11.319Z,9.75
2019-04-01T19:13:39.085Z,9.70
2019-04-01T19:16:08.376Z,9.68
2019-04-01T19:18:39.400Z,9.61
2019-04-01T19:21:06.310Z,9.60
2019-04-01T19:23:34.316Z,9.65
2019-04-01T19:26:02.202Z,9.56
2019-04-01T19:28:30.091Z,9.48
2019-04-01T19:30:57.936Z,9.47
2019-04-01T19:33:26.250Z,9.41
2019-04-01T19:35:54.085Z,9.40
2019-04-01T19:38:21.928Z,9.36
2019-04-01T19:40:50.008Z,9.27
2019-04-01T19:43:17.900Z,9.31
2019-04-01T19:45:50.730Z,9.21
2019-04-01T19:48:18.682Z,9.21
2019-04-01T19:50:46.518Z,9.20
2019-04-01T19:53:14.365Z,9.08
2019-04-01T19:55:43.939Z,9.13
2019-04-01T19:58:11.897Z,9.11
2019-04-01T20:00:41.176Z,9.03
2019-04-01T20:03:09.353Z,9.07
2019-04-01T20:05:37.358Z,8.96
2019-04-01T20:08:05.419Z,8.95
2019-04-01T20:10:33.352Z,8.89
2019-04-01T20:13:01.366Z,8.86
2019-04-01T20:15:29.121Z,8.93
2019-04-01T20:17:57.020Z,8.90
2019-04-01T20:20:24.791Z,8.77
2019-04-01T20:22:53.974Z,8.72
2019-04-01T20:25:22.166Z,8.69
2019-04-01T20:27:49.935Z,8.67
2019-04-01T20:30:18.723Z,8.57
2019-04-01T20:32:46.579Z,8.51
2019-04-01T20:35:23.208Z,8.54
2019-04-01T20:37:44.581Z,8.52
2019-04-01T20:40:13.031Z,8.47
2019-04-01T20:42:41.259Z,8.41
2019-04-01T20:45:13.642Z,8.36
2019-04-01T20:47:44.473Z,8.34
2019-04-01T20:50:14.682Z,8.29
2019-04-01T20:52:43.315Z,8.22
2019-04-01T20:55:13.277Z,8.16
2019-04-01T20:57:46.053Z,8.15
2019-04-01T21:00:14.887Z,8.09
2019-04-01T21:02:42.857Z,8.08
2019-04-01T21:05:10.959Z,8.00
2019-04-01T21:07:39.149Z,8.00
2019-04-01T21:10:11.169Z,7.97
2019-04-01T21:13:48.062Z,7.82
2019-04-01T21:16:16.781Z,7.86
2019-04-01T21:18:44.713Z,7.78
2019-04-01T21:21:32.253Z,7.79
2019-04-01T21:24:00.418Z,7.67
2019-04-01T21:26:28.264Z,7.63
2019-04-01T21:28:56.134Z,7.59
2019-04-01T21:31:23.908Z,7.61
2019-04-01T21:33:52.071Z,7.50
2019-04-01T21:36:20.053Z,7.47
2019-04-01T21:38:47.947Z,7.48
2019-04-01T21:41:16.010Z,7.45
2019-04-01T21:43:44.134Z,7.36
2019-04-01T21:46:13.194Z,7.31
2019-04-01T21:48:41.840Z,7.34
2019-04-01T21:51:09.732Z,7.34
2019-04-01T21:53:37.942Z,7.28
2019-04-01T21:56:05.929Z,7.20
2019-04-01T21:58:33.885Z,7.20
2019-04-01T22:01:01.914Z,7.23
2019-04-01T22:03:32.222Z,7.27
2019-04-01T22:06:00.279Z,7.21
2019-04-01T22:08:28.470Z,7.21
2019-04-01T22:10:56.295Z,7.17
2019-04-01T22:13:24.253Z,7.12
2019-04-01T22:15:52.012Z,7.12
2019-04-01T22:18:19.805Z,7.13
2019-04-01T22:20:47.562Z,7.16
2019-04-01T22:23:15.338Z,7.13
2019-04-01T22:25:43.100Z,7.01
2019-04-01T22:28:10.927Z,7.01
2019-04-01T22:30:38.743Z,6.94
2019-04-01T22:33:06.512Z,6.87
2019-04-01T22:35:38.857Z,6.87
2019-04-01T22:38:06.215Z,6.86
2019-04-01T22:40:33.932Z,6.83
2019-04-01T22:43:01.841Z,6.88
2019-04-01T22:45:29.613Z,6.85
2019-04-01T22:47:57.465Z,6.88
2019-04-01T22:50:25.233Z,6.83
2019-04-01T22:52:53.079Z,6.80
2019-04-01T22:55:20.892Z,6.88
2019-04-01T22:57:48.823Z,6.76
2019-04-01T23:00:18.337Z,6.75
2019-04-01T23:02:46.379Z,6.66
2019-04-01T23:05:14.162Z,6.57
2019-04-01T23:07:41.963Z,6.49
2019-04-01T23:10:09.857Z,6.50
2019-04-01T23:12:39.455Z,6.49
2019-04-01T23:15:07.803Z,6.43
2019-04-01T23:17:35.689Z,6.45
2019-04-01T23:20:05.898Z,6.35
2019-04-01T23:22:33.712Z,6.39
2019-04-01T23:25:01.855Z,6.42
2019-04-01T23:27:29.580Z,6.31
2019-04-01T23:29:57.573Z,6.21
2019-04-01T23:32:25.566Z,6.25
2019-04-01T23:34:53.351Z,6.14
2019-04-01T23:37:21.119Z,6.18
2019-04-01T23:39:49.351Z,6.08
2019-04-01T23:42:17.138Z,6.08
2019-04-01T23:44:44.913Z,5.98
2019-04-01T23:47:12.660Z,5.95
2019-04-01T23:49:40.836Z,6.08
2019-04-01T23:52:08.588Z,6.05
2019-04-01T23:54:36.388Z,5.99
2019-04-01T23:57:04.212Z,5.87
2019-04-01T23:59:32.018Z,5.87
